Погода Ареадона неделю

Минас-Жерайс, Бразилия

24 - 30 июля
  • 24июля
    Сегодня
    +10°
    +25°
    Облачно с прояснениями
    ВремяПогодаТемператураВлажностьДавлениеВетер, м/сВероятность осадков
    00:00Ясно и безоблачно+14°C83 %691 мм2.1 м/с5 %
    03:00Небольшая облачность+12°C85 %690 мм2.1 м/с5 %
    06:00Облачно с прояснениями+10°C86 %690 мм2.1 м/с5 %
    09:00Небольшая облачность+14°C69 %692 мм2.0 м/с5 %
    12:00Небольшая облачность+21°C50 %693 мм2.2 м/с5 %
    15:00Облачно с прояснениями+25°C37 %691 мм1.6 м/с5 %
    18:00Небольшая облачность+22°C47 %691 мм1.4 м/с5 %
    21:00Практически безоблачно+16°C72 %690 мм2.3 м/с5 %
  • 25июля
    Четверг
    +11°
    +26°
    Ясно и безоблачно
    ВремяПогодаТемператураВлажностьДавлениеВетер, м/сВероятность осадков
    00:00Практически безоблачно+15°C78 %690 мм2.0 м/с5 %
    03:00Небольшая облачность+13°C89 %689 мм2.1 м/с5 %
    06:00Ясно и безоблачно+11°C93 %689 мм1.8 м/с5 %
    09:00Небольшая облачность+15°C75 %691 мм1.3 м/с5 %
    12:00Ясно и безоблачно+21°C52 %691 мм1.3 м/с5 %
    15:00Ясно и безоблачно+26°C40 %690 мм0.5 м/с5 %
    18:00Ясно и безоблачно+20°C60 %688 мм2.0 м/с5 %
    21:00Ясно и безоблачно+19°C62 %689 мм1.3 м/с5 %
  • 26июля
    Пятница
    +11°
    +26°
    Ясно и безоблачно
    ВремяПогодаТемператураВлажностьДавлениеВетер, м/сВероятность осадков
    00:00Ясно и безоблачно+15°C83 %688 мм1.5 м/с5 %
    03:00Ясно и безоблачно+14°C85 %687 мм0.6 м/с5 %
    06:00Ясно и безоблачно+11°C91 %687 мм2.0 м/с5 %
    09:00Ясно и безоблачно+15°C74 %690 мм1.1 м/с5 %
    12:00Облачно с прояснениями+22°C46 %690 мм2.0 м/с5 %
    15:00Ясно и безоблачно+26°C37 %689 мм1.5 м/с5 %
    18:00Практически безоблачно+20°C58 %688 мм2.3 м/с5 %
    21:00Облачно с прояснениями+18°C70 %688 мм2.5 м/с5 %
  • 27июля
    Суббота
    +11°
    +27°
    Ясно и безоблачно
    ВремяПогодаТемператураВлажностьДавлениеВетер, м/сВероятность осадков
    00:00Облачно с прояснениями+17°C71 %689 мм0.1 м/с5 %
    03:00Небольшая облачность+13°C85 %687 мм1.8 м/с5 %
    06:00Облачно с прояснениями+11°C87 %687 мм2.1 м/с5 %
    09:00Небольшая облачность+16°C68 %690 мм1.0 м/с5 %
    12:00Ясно и безоблачно+23°C47 %691 мм1.5 м/с5 %
    15:00Ясно и безоблачно+27°C35 %690 мм1.6 м/с5 %
    18:00Ясно и безоблачно+21°C54 %689 мм2.4 м/с5 %
    21:00Ясно и безоблачно+18°C67 %689 мм2.3 м/с5 %
Мы используем cookies
Соглашаюсь